Terminal Aerodrome Forecast
Issued by NWS

Home | Current Version | Previous Version | Text Only | Print | Product List | Glossary On
Versions: 1 2 3 4 5 6 7 8 9 10 11 12 13 14 15 16 17 18 19
000
FTUS44 KHGX 260306 AAA
TAFSGR
TAF AMD
KSGR 260306Z 2603/2624 VRB03KT P6SM SCT015
      TEMPO 2603/2605 BKN015
     FM261200 VRB03KT P6SM VCSH SCT025
     FM261600 18007KT P6SM VCTS SCT040CB BKN250
      TEMPO 2618/2622 VRB10G20KT TSRA=

USA.gov is the U.S. government's official web portal to all federal, state and local government web resources and services.